• Join FlightAware (Why Join?)
  • Login
  • US Flag 
01:46PM EDT


 

Airport Tracker/Info


-or-


 

Live Flight TrackerFlight Track Log ✈ SKW6492 ✈ 29-Aug-2013 ✈ KDEN - KCOD

Flight Track Log - Related Links

Times and Time Zones

All times are in EDT time to prevent confusion due to time zone crossing. See the SKW6492 flight status page for this flight to view local times or setup timezone preferences in your user account.

Time Position Orientation Groundspeed Altitude Reporting Facility
EDT Latitude Longitude Course Direction KTS MPH feet Rate Location/Type
09:59PM 39.9167 -104.7000 346° North 183 211 6,800  Level Denver TRACON
10:00PM 39.9667 -104.7000 360° North 231 266 8,400 1,500 Climbing Denver TRACON
10:01PM 40.0500 -104.7000 360° North 269 310 9,800 1,440 Climbing Denver TRACON
10:02PM 40.1650 -104.7711 347° North  Level FlightAware Approximate
10:02PM 40.1167 -104.7167 349° North 296 341 11,300  Level Denver TRACON
10:03PM 40.2708 -104.8029 347° North  Level FlightAware Approximate
10:04PM 40.3763 -104.8365 346° North  Level FlightAware Approximate
10:04PM 40.2550 -104.7306 356° North 319 367 13,600  Level Denver Center
10:05PM 40.4815 -104.8716 346° North  Level FlightAware Approximate
10:05PM 40.3478 -104.7519 350° North 344 396 14,500  Level Denver Center
10:06PM 40.4725 -104.7814 350° North 367 422 15,500 1,080 Climbing Denver Center
10:07PM 40.5819 -104.8050 351° North 377 434 16,800 1,140 Climbing Denver Center
10:08PM 40.6858 -104.8281 350° North 372 428 17,900 1,020 Climbing Denver Center
10:09PM 40.7925 -104.8681 344° North 356 410 19,000 660 Climbing Denver Center
10:10PM 40.8775 -104.9575 322° Northwest 383 441 19,300 360 Climbing Denver Center
10:11PM 40.9642 -105.0400 324° Northwest 387 445 19,800 900 Climbing Denver Center
10:12PM 41.0561 -105.1297 324° Northwest 382 440 21,200 1,440 Climbing Denver Center
10:13PM 41.1300 -105.2069 322° Northwest 360 414 22,800 1,200 Climbing Denver Center
10:14PM 41.2158 -105.2917 323° Northwest 346 398 23,800 900 Climbing Denver Center
10:16PM 41.2961 -105.3622 327° Northwest 357 411 24,700 780 Climbing Denver Center
10:17PM 41.3806 -105.4203 333° Northwest 355 409 25,500 600 Climbing Denver Center
10:18PM 41.4678 -105.5131 321° Northwest 359 413 26,000 120 Climbing Denver Center
10:19PM 41.5478 -105.5933 323° Northwest 371 427 25,800 -600 Descending Denver Center
10:20PM 41.6533 -105.7039 322° Northwest 428 493 24,700 -840 Descending Denver Center
10:21PM 41.7647 -105.8178 323° Northwest 448 516 24,000 -360 Descending Denver Center
10:22PM 41.8775 -105.9347 322° Northwest 456 525 24,000  Level Denver Center
10:23PM 41.9725 -106.0333 322° Northwest 451 519 24,000  Level Denver Center
10:24PM 42.0803 -106.1472 322° Northwest 443 510 24,000  Level Denver Center
10:25PM 42.1700 -106.2422 322° Northwest 433 498 24,000  Level Denver Center
10:26PM 42.2683 -106.3561 319° Northwest 420 483 24,000  Level Denver Center
10:27PM 42.3358 -106.4717 308° West 409 471 24,000  Level Denver Center
10:28PM 42.4058 -106.5825 311° West 405 466 24,000  Level Denver Center
10:29PM 42.4903 -106.7064 313° West 401 461 24,000  Level Denver Center
10:30PM 42.5631 -106.8139 313° West 403 464 24,000  Level Denver Center
10:31PM 42.6472 -106.9383 313° West 400 460 24,000  Level Denver Center
10:32PM 42.7319 -107.0636 313° West 401 461 24,000  Level Denver Center
10:33PM 42.8167 -107.1881 313° West 401 461 24,000  Level Denver Center
10:34PM 42.8808 -107.2819 313° West 401 461 24,000  Level Salt Lake Center
10:35PM 42.9544 -107.3911 313° West 399 459 24,000  Level Salt Lake Center
10:36PM 43.0297 -107.5033 313° West 400 460 24,000  Level Salt Lake Center
10:37PM 43.1167 -107.6022 320° Northwest 407 468 24,000  Level Salt Lake Center
10:38PM 43.2017 -107.7011 320° Northwest 403 464 24,000  Level Salt Lake Center
10:39PM 43.3061 -107.8189 321° Northwest 405 466 24,000  Level Salt Lake Center
10:40PM 43.3950 -107.9164 321° Northwest 409 471 24,000  Level Salt Lake Center
10:41PM 43.4842 -108.0136 322° Northwest 409 471 24,000  Level Salt Lake Center
10:43PM 43.5722 -108.1156 320° Northwest 412 474 24,000  Level Salt Lake Center
10:44PM 43.6689 -108.2072 326° Northwest 423 487 24,000  Level Salt Lake Center
10:45PM 43.7714 -108.2867 331° Northwest 423 487 24,000  Level Salt Lake Center
10:46PM 43.8742 -108.3669 331° Northwest 423 487 24,000 -1,140 Level Salt Lake Center
10:47PM 43.9786 -108.4489 331° Northwest 431 496 21,700 -3,000 Descending Salt Lake Center
10:48PM 44.1042 -108.5511 330° Northwest 434 499 17,800 -3,360 Descending Salt Lake Center
10:49PM 44.2058 -108.6314 330° Northwest 426 490 14,900 -3,000 Descending Salt Lake Center
10:50PM 44.3019 -108.7094 330° Northwest 416 479 11,700 -2,400 Descending Salt Lake Center
10:51PM 44.3944 -108.7839 330° Northwest 402 463 10,000 -840 Descending Salt Lake Center
10:52PM 44.4642 -108.8389 331° Northwest 338 389 10,000 -540 Level Salt Lake Center
10:53PM 44.5275 -108.8492 353° North 275 316 8,900 -960 Descending Salt Lake Center
10:54PM 44.5747 -108.8817 334° Northwest 233 268 8,100 -1,200 Descending Salt Lake Center
10:55PM 44.5703 -108.9411 264° West 183 211 6,500 -1,140 Descending Salt Lake Center
10:56PM 44.5422 -108.9928 233° Southwest 165 190 5,800 -720 Descending Salt Lake Center